Terminal Aerodrome Forecast
Issued by NWS Central Illinois

Home | Current Version | Previous Version | Text Only | Print | Product List | Glossary On
Versions: 1 2 3 4 5 6 7 8 9 10 11 12 13 14 15 16 17 18 19 20 21 22 23 24
000
FTUS43 KILX 252320
TAFPIA
TAF
KPIA 252320Z 2600/2624 VRB05KT P6SM FEW030
     FM260200 VRB05KT P6SM SCT200
     FM261400 14009KT P6SM BKN150
     FM262000 17010G15KT P6SM VCTS BKN035CB=

USA.gov is the U.S. government's official web portal to all federal, state and local government web resources and services.